Charlotte, Arkansas
Current Conditions -  °F | °C
As of 12:35 AM on Monday 26 Jan 2015 (Local Time) from KBVX Reporting Station
Overcast Overcast  
Wind Chill: 36°   Ceiling: 2200
Heat Index: 41°   Visibility: 10mi
Dew Point: 32°   Wind: 8mph
Humidity: 70%   Direction: 310°NW
Pressure: 30.04"   Gusts: 18mph
Location:  35.82°N, 91.44°W
Report Text: KBVX 260635Z AUTO 31007G16KT 230V040 10SM OVC022 05/00 A3004 RMK AO1
Loading
Personal Weather Stations






























Interactive Weather Map New forecast layout! Learn more

10-Day Weather Forecast

Advertisements
Track Severe Weather on mobile